createdAt,value
2018-10-11T00:00:32.071Z,0.00
2018-10-11T00:01:32.058Z,0.00
2018-10-11T00:02:32.044Z,0.00
2018-10-11T00:03:32.034Z,0.00
2018-10-11T00:04:32.025Z,0.00
2018-10-11T00:05:32.014Z,0.00
2018-10-11T00:06:32.004Z,0.00
2018-10-11T00:07:31.992Z,0.00
2018-10-11T00:08:31.981Z,0.00
2018-10-11T00:09:31.967Z,0.00
2018-10-11T00:10:31.958Z,0.00
2018-10-11T00:11:31.948Z,0.00
2018-10-11T00:12:31.937Z,0.00
2018-10-11T00:13:31.925Z,0.00
2018-10-11T00:14:31.915Z,0.00
2018-10-11T00:15:31.901Z,0.00
2018-10-11T00:16:31.892Z,0.00
2018-10-11T00:17:31.886Z,0.00
2018-10-11T00:18:31.870Z,0.00
2018-10-11T00:19:31.860Z,0.00
2018-10-11T00:20:31.850Z,0.00
2018-10-11T00:21:31.838Z,0.00
2018-10-11T00:22:31.827Z,0.00
2018-10-11T00:23:31.816Z,0.00
2018-10-11T00:24:31.806Z,0.00
2018-10-11T00:25:31.795Z,0.00
2018-10-11T00:26:31.782Z,0.00
2018-10-11T00:27:31.772Z,0.00
2018-10-11T00:28:31.759Z,0.00
2018-10-11T00:29:31.753Z,0.00
2018-10-11T00:30:31.740Z,0.00
2018-10-11T00:31:31.726Z,0.00
2018-10-11T00:32:31.718Z,0.00
2018-10-11T00:33:31.706Z,0.00
2018-10-11T00:34:31.693Z,0.00
2018-10-11T00:35:31.683Z,0.00
2018-10-11T00:36:31.673Z,0.00
2018-10-11T00:37:31.663Z,0.00
2018-10-11T00:38:31.653Z,0.00
2018-10-11T00:39:31.639Z,0.00
2018-10-11T00:40:31.628Z,0.00
2018-10-11T00:41:31.624Z,0.00
2018-10-11T00:42:31.607Z,0.00
2018-10-11T00:43:31.595Z,0.00
2018-10-11T00:44:31.587Z,0.00
2018-10-11T00:45:31.574Z,0.00
2018-10-11T00:46:31.563Z,0.00
2018-10-11T00:47:31.553Z,0.00
2018-10-11T00:48:31.541Z,0.00
2018-10-11T00:49:31.572Z,0.00
2018-10-11T00:50:31.519Z,0.00
2018-10-11T00:51:31.509Z,0.00
2018-10-11T00:52:31.498Z,0.00
2018-10-11T00:53:31.484Z,0.00
2018-10-11T00:54:31.474Z,0.00
2018-10-11T00:55:31.463Z,0.00
2018-10-11T00:56:31.453Z,0.00
2018-10-11T00:57:31.440Z,0.00
2018-10-11T00:58:31.430Z,0.00
2018-10-11T00:59:31.420Z,0.00
2018-10-11T01:00:31.408Z,0.00
2018-10-11T01:01:31.398Z,0.00
2018-10-11T01:02:31.386Z,0.00
2018-10-11T01:03:31.381Z,0.00
2018-10-11T01:04:31.367Z,0.00
2018-10-11T01:05:31.354Z,0.00
2018-10-11T01:06:31.342Z,0.00
2018-10-11T01:07:31.332Z,0.00
2018-10-11T01:08:31.319Z,0.00
2018-10-11T01:09:31.471Z,0.00
2018-10-11T01:10:31.298Z,0.00
2018-10-11T01:20:18.115Z,0.00
2018-10-11T01:21:18.102Z,0.00
2018-10-11T01:22:18.092Z,0.00
2018-10-11T01:23:18.087Z,0.00
2018-10-11T01:24:18.071Z,0.00
2018-10-11T01:25:18.060Z,0.00
2018-10-11T01:26:18.049Z,0.00
2018-10-11T01:27:18.039Z,0.00
2018-10-11T01:28:18.027Z,0.00
2018-10-11T01:29:18.018Z,0.00
2018-10-11T01:30:18.007Z,0.00
2018-10-11T01:31:17.998Z,0.00
2018-10-11T01:32:17.983Z,0.00
2018-10-11T01:33:17.975Z,0.00
2018-10-11T01:34:17.962Z,0.00
2018-10-11T01:35:17.951Z,0.00
2018-10-11T01:36:17.940Z,0.00
2018-10-11T01:37:17.931Z,0.00
2018-10-11T01:38:17.922Z,0.00
2018-10-11T01:39:17.908Z,0.00
2018-10-11T01:40:17.901Z,0.00
2018-10-11T01:41:17.892Z,0.00
2018-10-11T01:42:17.874Z,0.00
2018-10-11T01:43:17.872Z,0.00
2018-10-11T01:44:17.857Z,0.00
2018-10-11T01:45:17.845Z,0.00
2018-10-11T01:46:17.834Z,0.00
2018-10-11T01:47:17.822Z,0.00
2018-10-11T01:48:17.810Z,0.00
2018-10-11T01:49:17.802Z,0.00
2018-10-11T01:50:17.790Z,0.00
2018-10-11T01:51:17.778Z,0.00
2018-10-11T01:52:17.768Z,0.00
2018-10-11T01:53:17.758Z,0.00
2018-10-11T01:54:17.748Z,0.00
2018-10-11T01:55:17.738Z,0.00
2018-10-11T01:56:17.724Z,0.00
2018-10-11T01:57:17.716Z,0.00
2018-10-11T01:58:17.710Z,0.00
2018-10-11T01:59:17.826Z,0.00
2018-10-11T02:00:17.690Z,0.00
2018-10-11T02:01:17.671Z,0.00
2018-10-11T02:02:17.660Z,0.00
2018-10-11T02:03:17.649Z,0.00
2018-10-11T02:04:17.639Z,0.00
2018-10-11T02:05:17.627Z,0.00
2018-10-11T02:06:17.617Z,0.00
2018-10-11T02:07:17.607Z,0.00
2018-10-11T02:08:17.594Z,0.00
2018-10-11T02:09:17.588Z,0.00
2018-10-11T02:10:17.574Z,0.00
2018-10-11T02:11:17.562Z,0.00
2018-10-11T02:12:17.550Z,0.00
2018-10-11T02:13:17.539Z,0.00
2018-10-11T02:14:17.529Z,0.00
2018-10-11T02:15:17.518Z,0.00
2018-10-11T02:16:17.507Z,0.00
2018-10-11T02:17:17.501Z,0.00
2018-10-11T02:18:17.485Z,0.00
2018-10-11T02:19:17.474Z,0.00
2018-10-11T02:20:17.465Z,0.00
2018-10-11T02:21:17.465Z,0.00
2018-10-11T02:22:17.440Z,0.00
2018-10-11T02:23:17.431Z,0.00
2018-10-11T02:24:17.421Z,0.00
2018-10-11T02:25:17.415Z,0.00
2018-10-11T02:26:17.399Z,0.00
2018-10-11T02:27:17.389Z,0.00
2018-10-11T02:28:17.378Z,0.00
2018-10-11T02:29:17.367Z,0.00
2018-10-11T02:30:17.358Z,0.00
2018-10-11T02:31:17.346Z,0.00
2018-10-11T02:32:17.335Z,0.00
2018-10-11T02:33:17.322Z,0.00
2018-10-11T02:34:17.330Z,0.00
2018-10-11T02:35:17.303Z,0.00
2018-10-11T02:36:17.291Z,0.00
2018-10-11T02:37:17.280Z,0.00
2018-10-11T02:38:17.270Z,0.00
2018-10-11T02:39:17.260Z,0.00
2018-10-11T02:40:17.248Z,0.00
2018-10-11T02:41:17.236Z,0.00
2018-10-11T02:42:17.224Z,0.00
2018-10-11T02:43:17.216Z,0.00
2018-10-11T02:44:17.206Z,0.00
2018-10-11T02:45:17.192Z,0.00
2018-10-11T02:46:17.181Z,0.00
2018-10-11T02:47:17.172Z,0.00
2018-10-11T02:48:17.161Z,0.00
2018-10-11T02:49:17.148Z,0.00
2018-10-11T02:50:17.137Z,0.00
2018-10-11T02:51:17.129Z,0.00
2018-10-11T02:52:17.117Z,0.00
2018-10-11T02:53:17.105Z,0.00
2018-10-11T02:54:17.097Z,0.00
2018-10-11T02:55:17.086Z,0.00
2018-10-11T02:56:17.073Z,0.00
2018-10-11T02:57:17.062Z,0.00
2018-10-11T02:58:17.054Z,0.00
2018-10-11T02:59:17.042Z,0.00
2018-10-11T03:00:17.029Z,0.00
2018-10-11T03:01:17.020Z,0.00
2018-10-11T03:02:17.007Z,0.00
2018-10-11T03:03:16.998Z,0.00
2018-10-11T03:04:16.986Z,0.00
2018-10-11T03:05:16.974Z,0.00
2018-10-11T03:06:16.965Z,0.00
2018-10-11T03:07:16.956Z,0.00
2018-10-11T03:08:16.946Z,0.00
2018-10-11T03:09:16.932Z,0.00
2018-10-11T03:10:16.921Z,0.00
2018-10-11T03:11:16.911Z,0.00
2018-10-11T03:12:16.900Z,0.00
2018-10-11T03:13:16.888Z,0.00
2018-10-11T03:14:16.877Z,0.00
2018-10-11T03:15:16.866Z,0.00
2018-10-11T03:16:16.857Z,0.00
2018-10-11T03:17:16.848Z,0.00
2018-10-11T03:18:16.837Z,0.00
2018-10-11T03:19:16.824Z,0.00
2018-10-11T03:20:16.812Z,0.00
2018-10-11T03:21:16.803Z,0.00
2018-10-11T03:22:16.790Z,0.00
2018-10-11T03:23:16.780Z,0.00
2018-10-11T03:24:16.783Z,0.00
2018-10-11T03:25:16.758Z,0.00
2018-10-11T03:26:16.750Z,0.00
2018-10-11T03:27:16.738Z,0.00
2018-10-11T03:28:16.725Z,0.00
2018-10-11T03:29:16.715Z,0.00
2018-10-11T03:30:16.715Z,0.00
2018-10-11T03:31:16.693Z,0.00
2018-10-11T03:32:16.682Z,0.00
2018-10-11T03:33:16.672Z,0.00
2018-10-11T03:34:16.669Z,0.00
2018-10-11T03:35:16.651Z,0.00
2018-10-11T03:36:16.639Z,0.00
2018-10-11T03:37:16.628Z,0.00
2018-10-11T03:38:16.618Z,0.00
2018-10-11T03:39:16.606Z,0.00
2018-10-11T03:40:16.595Z,0.00
2018-10-11T03:41:16.586Z,0.00
2018-10-11T03:42:16.575Z,0.00
2018-10-11T03:43:16.563Z,0.00
2018-10-11T03:44:16.553Z,0.00
2018-10-11T03:45:16.542Z,0.00
2018-10-11T03:46:16.530Z,0.00
2018-10-11T03:47:16.519Z,0.00
2018-10-11T03:48:16.507Z,0.00
2018-10-11T03:49:16.499Z,0.00
2018-10-11T03:50:16.486Z,0.00
2018-10-11T03:51:16.476Z,0.00
2018-10-11T03:52:16.472Z,0.00
2018-10-11T03:53:16.456Z,0.00
2018-10-11T03:54:16.446Z,0.00
2018-10-11T03:55:16.432Z,0.00
2018-10-11T03:56:16.426Z,0.00
2018-10-11T03:57:16.420Z,0.00
2018-10-11T03:58:16.404Z,0.00
2018-10-11T03:59:16.391Z,0.00
2018-10-11T04:00:16.381Z,0.00
2018-10-11T04:01:16.369Z,0.00
2018-10-11T04:02:16.359Z,0.00
2018-10-11T04:03:16.348Z,0.00
2018-10-11T04:04:16.343Z,0.00
2018-10-11T04:05:16.325Z,0.00
2018-10-11T04:06:16.312Z,0.00
2018-10-11T04:07:16.303Z,0.00
2018-10-11T04:08:16.294Z,0.00
2018-10-11T04:09:16.283Z,0.00
2018-10-11T04:10:16.272Z,0.00
2018-10-11T04:11:16.262Z,0.00
2018-10-11T04:12:16.249Z,0.00
2018-10-11T04:13:16.239Z,0.00
2018-10-11T04:14:16.232Z,0.00
2018-10-11T04:15:16.217Z,0.00
2018-10-11T04:16:16.205Z,0.00
2018-10-11T04:17:16.196Z,0.00
2018-10-11T04:18:16.184Z,0.00
2018-10-11T04:19:16.173Z,0.00
2018-10-11T04:20:16.161Z,0.00
2018-10-11T04:21:16.152Z,0.00
2018-10-11T04:22:16.140Z,0.00
2018-10-11T04:23:16.132Z,0.00
2018-10-11T04:24:16.120Z,0.00
2018-10-11T04:25:16.109Z,0.00
2018-10-11T04:26:16.098Z,0.00
2018-10-11T04:27:16.087Z,0.00
2018-10-11T04:28:16.076Z,0.00
2018-10-11T04:29:16.063Z,0.00
2018-10-11T04:30:16.054Z,0.00
2018-10-11T04:31:16.040Z,0.00
2018-10-11T04:32:16.035Z,0.00
2018-10-11T04:33:16.021Z,0.00
2018-10-11T04:34:16.012Z,0.00
2018-10-11T04:35:15.999Z,0.00
2018-10-11T04:36:16.079Z,0.00
2018-10-11T04:37:15.976Z,0.00
2018-10-11T04:38:15.965Z,0.00
2018-10-11T04:39:15.956Z,0.00
2018-10-11T04:40:15.946Z,0.00
2018-10-11T04:41:15.932Z,0.00
2018-10-11T04:42:15.923Z,0.00
2018-10-11T04:43:16.084Z,0.00
2018-10-11T04:44:15.900Z,0.00
2018-10-11T04:45:15.888Z,0.00
2018-10-11T04:46:15.879Z,0.00
2018-10-11T04:47:15.869Z,0.00
2018-10-11T04:48:15.856Z,0.00
2018-10-11T04:49:15.845Z,0.00
2018-10-11T04:50:15.834Z,0.00
2018-10-11T04:51:15.825Z,0.00
2018-10-11T04:52:15.813Z,0.00
2018-10-11T04:53:15.801Z,0.00
2018-10-11T04:54:15.793Z,0.00
2018-10-11T04:55:15.780Z,0.00
2018-10-11T04:56:15.768Z,0.00
2018-10-11T04:57:15.759Z,0.00
2018-10-11T04:58:15.748Z,0.00
2018-10-11T04:59:15.737Z,0.00
2018-10-11T05:00:15.725Z,0.00
2018-10-11T05:01:15.716Z,0.00
2018-10-11T05:02:15.706Z,0.00
2018-10-11T05:03:15.696Z,0.00
2018-10-11T05:04:15.684Z,0.00
2018-10-11T05:05:15.678Z,0.00
2018-10-11T05:06:15.660Z,0.00
2018-10-11T05:07:15.652Z,0.00
2018-10-11T05:08:15.641Z,0.00
2018-10-11T05:09:15.631Z,0.00
2018-10-11T05:10:15.616Z,4.00
2018-10-11T05:11:15.606Z,4.00
2018-10-11T05:12:15.597Z,0.00
2018-10-11T05:13:15.585Z,4.00
2018-10-11T05:14:15.592Z,4.00
2018-10-11T05:15:15.564Z,4.00
2018-10-11T05:16:15.553Z,4.00
2018-10-11T05:17:15.613Z,4.00
2018-10-11T05:18:15.535Z,4.00
2018-10-11T05:19:15.520Z,4.00
2018-10-11T05:20:15.517Z,8.00
2018-10-11T05:21:15.601Z,8.00
2018-10-11T05:22:15.486Z,8.00
2018-10-11T05:23:15.475Z,12.00
2018-10-11T05:24:15.464Z,12.00
2018-10-11T05:25:15.454Z,20.00
2018-10-11T05:26:15.507Z,20.00
2018-10-11T05:27:15.432Z,24.00
2018-10-11T05:28:15.421Z,28.00
2018-10-11T05:29:15.422Z,32.00
2018-10-11T05:30:15.403Z,40.00
2018-10-11T05:31:15.390Z,44.00
2018-10-11T05:32:15.419Z,56.00
2018-10-11T05:33:15.367Z,60.00
2018-10-11T05:34:15.356Z,72.00
2018-10-11T05:35:15.347Z,80.00
2018-10-11T05:36:15.333Z,92.00
2018-10-11T05:37:15.324Z,108.00
2018-10-11T05:38:15.405Z,116.00
2018-10-11T05:39:15.303Z,132.00
2018-10-11T05:40:15.291Z,148.00
2018-10-11T05:41:15.284Z,164.00
2018-10-11T05:42:15.271Z,184.00
2018-10-11T05:43:15.262Z,204.00
2018-10-11T05:44:15.250Z,224.00
2018-10-11T05:45:15.237Z,244.00
2018-10-11T05:46:15.226Z,268.00
2018-10-11T05:47:15.214Z,292.00
2018-10-11T05:48:15.204Z,320.00
2018-10-11T05:49:15.191Z,344.00
2018-10-11T05:50:15.233Z,376.00
2018-10-11T05:51:15.173Z,400.00
2018-10-11T05:52:15.162Z,432.00
2018-10-11T05:53:15.149Z,464.00
2018-10-11T05:54:15.141Z,500.00
2018-10-11T05:55:15.128Z,532.00
2018-10-11T05:56:15.116Z,568.00
2018-10-11T05:57:15.109Z,608.00
2018-10-11T05:58:15.102Z,644.00
2018-10-11T05:59:15.084Z,684.00
2018-10-11T06:00:15.079Z,720.00
2018-10-11T06:01:15.063Z,760.00
2018-10-11T06:02:15.052Z,804.00
2018-10-11T06:03:15.045Z,844.00
2018-10-11T06:04:15.101Z,888.00
2018-10-11T06:05:15.021Z,932.00
2018-10-11T06:06:15.008Z,976.00
2018-10-11T06:07:14.996Z,1020.00
2018-10-11T06:08:15.017Z,1064.00
2018-10-11T06:09:14.974Z,1108.00
2018-10-11T06:10:14.967Z,1148.00
2018-10-11T06:11:14.970Z,1196.00
2018-10-11T06:12:14.949Z,1240.00
2018-10-11T06:13:14.945Z,1288.00
2018-10-11T06:14:14.928Z,1336.00
2018-10-11T06:15:14.910Z,1388.00
2018-10-11T06:16:14.917Z,1440.00
2018-10-11T06:17:14.900Z,1492.00
2018-10-11T06:18:14.888Z,1536.00
2018-10-11T06:19:14.883Z,1588.00
2018-10-11T06:20:14.855Z,1632.00
2018-10-11T06:21:14.847Z,1676.00
2018-10-11T06:22:14.841Z,1724.00
2018-10-11T06:23:14.822Z,1768.00
2018-10-11T06:24:14.811Z,1816.00
2018-10-11T06:25:14.803Z,1860.00
2018-10-11T06:26:14.796Z,1900.00
2018-10-11T06:27:14.779Z,1944.00
2018-10-11T06:28:14.786Z,1988.00
2018-10-11T06:29:14.757Z,2028.00
2018-10-11T06:30:14.815Z,2072.00
2018-10-11T06:31:14.738Z,2112.00
2018-10-11T06:32:14.726Z,2156.00
2018-10-11T06:33:14.715Z,2204.00
2018-10-11T06:34:14.705Z,2244.00
2018-10-11T06:35:14.692Z,2292.00
2018-10-11T06:36:14.861Z,2340.00
2018-10-11T06:37:14.685Z,2384.00
2018-10-11T06:38:14.661Z,2428.00
2018-10-11T06:39:14.651Z,2472.00
2018-10-11T06:40:14.639Z,2516.00
2018-10-11T06:41:14.628Z,2556.00
2018-10-11T06:42:14.705Z,2596.00
2018-10-11T06:43:14.615Z,2624.00
2018-10-11T06:44:14.609Z,2676.00
2018-10-11T06:45:14.594Z,2700.00
2018-10-11T06:46:14.584Z,2732.00
2018-10-11T06:47:14.563Z,2764.00
2018-10-11T06:48:14.553Z,2800.00
2018-10-11T06:49:14.608Z,2844.00
2018-10-11T06:50:14.555Z,2876.00
2018-10-11T06:51:14.521Z,2908.00
2018-10-11T06:52:14.515Z,2944.00
2018-10-11T06:53:14.497Z,2976.00
2018-10-11T06:54:14.489Z,3004.00
2018-10-11T06:55:14.479Z,3040.00
2018-10-11T06:56:14.466Z,3064.00
2018-10-11T06:57:14.467Z,3092.00
2018-10-11T06:58:14.442Z,3108.00
2018-10-11T06:59:14.433Z,3140.00
2018-10-11T07:00:14.423Z,3176.00
2018-10-11T07:01:14.413Z,3196.00
2018-10-11T07:02:14.412Z,3232.00
2018-10-11T07:03:14.393Z,3260.00
2018-10-11T07:04:14.380Z,3288.00
2018-10-11T07:05:14.369Z,3328.00
2018-10-11T07:06:14.361Z,3360.00
2018-10-11T07:07:14.362Z,3396.00
2018-10-11T07:08:14.336Z,3436.00
2018-10-11T07:09:14.326Z,3472.00
2018-10-11T07:10:14.315Z,3496.00
2018-10-11T07:11:14.303Z,3540.00
2018-10-11T07:12:14.293Z,3580.00
2018-10-11T07:13:14.282Z,3616.00
2018-10-11T07:14:14.271Z,3652.00
2018-10-11T07:15:14.260Z,3680.00
2018-10-11T07:16:14.253Z,3704.00
2018-10-11T07:17:14.238Z,3724.00
2018-10-11T07:18:14.234Z,3748.00
2018-10-11T07:19:14.221Z,3768.00
2018-10-11T07:20:14.210Z,3796.00
2018-10-11T07:21:14.208Z,3824.00
2018-10-11T07:22:14.187Z,3852.00
2018-10-11T07:23:14.183Z,3872.00
2018-10-11T07:24:14.178Z,3884.00
2018-10-11T07:25:14.150Z,3904.00
2018-10-11T07:26:14.144Z,3920.00
2018-10-11T07:27:14.130Z,3944.00
2018-10-11T07:28:14.122Z,3960.00
2018-10-11T07:29:14.108Z,3984.00
2018-10-11T07:30:14.099Z,4004.00
2018-10-11T07:31:14.093Z,4028.00
2018-10-11T07:32:14.076Z,4048.00
2018-10-11T07:33:14.066Z,4056.00
2018-10-11T07:34:14.054Z,4068.00
2018-10-11T07:35:14.209Z,4084.00
2018-10-11T07:36:14.033Z,4104.00
2018-10-11T07:37:14.022Z,4120.00
2018-10-11T07:38:14.012Z,4144.00
2018-10-11T07:39:14.001Z,4176.00
2018-10-11T07:40:14.007Z,4220.00
2018-10-11T07:41:13.978Z,4236.00
2018-10-11T07:42:13.970Z,4260.00
2018-10-11T07:43:14.067Z,4276.00
2018-10-11T07:44:13.944Z,4292.00
2018-10-11T07:45:13.934Z,4308.00
2018-10-11T07:46:13.924Z,4336.00
2018-10-11T07:47:14.003Z,4368.00
2018-10-11T07:48:13.904Z,4384.00
2018-10-11T07:49:13.893Z,4420.00
2018-10-11T07:50:13.879Z,4436.00
2018-10-11T07:51:13.885Z,4480.00
2018-10-11T07:52:13.860Z,4504.00
2018-10-11T07:53:13.850Z,4536.00
2018-10-11T07:54:13.837Z,4552.00
2018-10-11T07:55:13.827Z,4584.00
2018-10-11T07:56:13.817Z,4608.00
2018-10-11T07:57:13.810Z,4612.00
2018-10-11T07:58:13.793Z,4620.00
2018-10-11T07:59:13.784Z,4636.00
2018-10-11T08:00:13.774Z,4660.00
2018-10-11T08:01:13.809Z,4688.00
2018-10-11T08:02:13.751Z,4700.00
2018-10-11T08:03:13.742Z,4720.00
2018-10-11T08:04:13.731Z,4728.00
2018-10-11T08:05:13.717Z,4736.00
2018-10-11T08:06:13.709Z,4756.00
2018-10-11T08:07:13.742Z,4788.00
2018-10-11T08:08:13.688Z,4796.00
2018-10-11T08:09:13.675Z,4808.00
2018-10-11T08:10:13.703Z,4828.00
2018-10-11T08:11:13.702Z,4836.00
2018-10-11T08:12:13.692Z,4860.00
2018-10-11T08:13:13.631Z,4856.00
2018-10-11T08:14:13.622Z,4880.00
2018-10-11T08:15:13.610Z,4888.00
2018-10-11T08:16:13.765Z,4908.00
2018-10-11T08:17:13.939Z,4944.00
2018-10-11T08:18:13.580Z,4944.00
2018-10-11T08:19:13.814Z,4972.00
2018-10-11T08:20:13.679Z,4984.00
2018-10-11T08:21:13.548Z,5004.00
2018-10-11T08:22:13.537Z,5004.00
2018-10-11T08:23:13.525Z,5000.00
2018-10-11T08:24:13.522Z,5020.00
2018-10-11T08:25:13.680Z,5024.00
2018-10-11T08:26:13.814Z,5096.00
2018-10-11T08:27:13.540Z,5112.00
2018-10-11T08:28:13.470Z,5128.00
2018-10-11T08:29:13.463Z,5164.00
2018-10-11T08:30:13.549Z,5152.00
2018-10-11T08:31:13.439Z,5176.00
2018-10-11T08:32:13.487Z,5192.00
2018-10-11T08:33:13.541Z,5208.00
2018-10-11T08:34:13.406Z,5212.00
2018-10-11T08:35:13.395Z,5224.00
2018-10-11T08:36:13.386Z,5244.00
2018-10-11T08:37:13.371Z,5260.00
2018-10-11T08:38:13.553Z,5280.00
2018-10-11T08:39:13.351Z,5292.00
2018-10-11T08:40:13.341Z,5308.00
2018-10-11T08:41:13.331Z,5308.00
2018-10-11T08:42:13.322Z,5304.00
2018-10-11T08:43:13.309Z,5296.00
2018-10-11T08:44:13.358Z,5340.00
2018-10-11T08:45:13.287Z,5364.00
2018-10-11T08:46:13.276Z,5364.00
2018-10-11T08:47:13.263Z,5404.00
2018-10-11T08:48:13.255Z,5416.00
2018-10-11T08:49:13.339Z,5432.00
2018-10-11T08:50:13.254Z,5460.00
2018-10-11T08:51:13.224Z,5476.00
2018-10-11T08:52:13.209Z,5488.00
2018-10-11T08:53:13.206Z,5504.00
2018-10-11T08:54:13.190Z,5548.00
2018-10-11T08:55:13.178Z,5548.00
2018-10-11T08:56:13.170Z,5552.00
2018-10-11T08:57:13.155Z,5568.00
2018-10-11T08:58:13.148Z,5588.00
2018-10-11T08:59:13.243Z,5596.00
2018-10-11T09:00:13.126Z,5620.00
2018-10-11T09:01:13.114Z,5640.00
2018-10-11T09:02:13.102Z,5656.00
2018-10-11T09:03:13.158Z,5656.00
2018-10-11T09:04:13.119Z,5664.00
2018-10-11T09:05:13.149Z,5676.00
2018-10-11T09:06:13.069Z,5696.00
2018-10-11T09:07:13.049Z,5704.00
2018-10-11T09:08:13.039Z,5712.00
2018-10-11T09:09:13.026Z,5748.00
2018-10-11T09:10:13.021Z,5768.00
2018-10-11T09:11:13.021Z,5788.00
2018-10-11T09:12:12.995Z,5812.00
2018-10-11T09:13:12.987Z,5820.00
2018-10-11T09:14:12.973Z,5844.00
2018-10-11T09:15:12.969Z,5864.00
2018-10-11T09:16:12.951Z,5876.00
2018-10-11T09:17:12.954Z,5896.00
2018-10-11T09:18:12.932Z,5892.00
2018-10-11T09:19:12.920Z,5916.00
2018-10-11T09:20:12.911Z,5924.00
2018-10-11T09:21:12.903Z,5920.00
2018-10-11T09:22:12.889Z,5800.00
2018-10-11T09:23:12.883Z,5724.00
2018-10-11T09:24:12.867Z,5652.00
2018-10-11T09:25:12.855Z,5848.00
2018-10-11T09:26:12.845Z,5572.00
2018-10-11T09:27:12.834Z,5648.00
2018-10-11T09:28:12.826Z,5476.00
2018-10-11T09:29:12.812Z,5836.00
2018-10-11T09:30:12.828Z,5900.00
2018-10-11T09:31:12.803Z,5956.00
2018-10-11T09:32:12.780Z,6064.00
2018-10-11T09:33:12.769Z,5352.00
2018-10-11T09:34:12.758Z,5740.00
2018-10-11T09:35:12.748Z,6000.00
2018-10-11T09:36:12.769Z,6068.00
2018-10-11T09:37:12.728Z,6076.00
2018-10-11T09:38:12.717Z,5884.00
2018-10-11T09:39:12.704Z,5776.00
2018-10-11T09:40:12.697Z,5572.00
2018-10-11T09:41:12.687Z,5500.00
2018-10-11T09:42:12.671Z,5640.00
2018-10-11T09:43:12.757Z,6044.00
2018-10-11T09:44:12.654Z,5944.00
2018-10-11T09:45:12.641Z,5840.00
2018-10-11T09:46:12.631Z,5880.00
2018-10-11T09:47:12.617Z,6232.00
2018-10-11T09:48:12.621Z,6496.00
2018-10-11T09:49:12.596Z,6576.00
2018-10-11T09:50:12.590Z,6580.00
2018-10-11T09:51:12.576Z,6388.00
2018-10-11T09:52:12.666Z,5964.00
2018-10-11T09:53:12.557Z,5484.00
2018-10-11T09:54:12.551Z,5820.00
2018-10-11T09:55:12.534Z,6060.00
2018-10-11T09:56:12.522Z,5388.00
2018-10-11T09:57:12.511Z,5344.00
2018-10-11T09:58:12.501Z,5336.00
2018-10-11T09:59:12.492Z,6668.00
2018-10-11T10:00:12.477Z,6960.00
2018-10-11T10:01:12.470Z,6660.00
2018-10-11T10:02:12.465Z,6784.00
2018-10-11T10:03:12.462Z,6664.00
2018-10-11T10:04:12.436Z,6636.00
2018-10-11T10:05:12.425Z,7232.00
2018-10-11T10:06:12.415Z,7328.00
2018-10-11T10:07:12.404Z,7168.00
2018-10-11T10:08:12.392Z,7092.00
2018-10-11T10:09:12.383Z,6888.00
2018-10-11T10:10:12.373Z,6772.00
2018-10-11T10:11:12.365Z,6700.00
2018-10-11T10:12:12.350Z,6720.00
2018-10-11T10:13:12.339Z,7224.00
2018-10-11T10:14:12.329Z,7264.00
2018-10-11T10:15:12.316Z,7164.00
2018-10-11T10:16:12.306Z,7076.00
2018-10-11T10:17:12.297Z,7108.00
2018-10-11T10:18:12.286Z,7440.00
2018-10-11T10:19:12.275Z,7244.00
2018-10-11T10:20:12.264Z,7484.00
2018-10-11T10:21:12.371Z,7168.00
2018-10-11T10:22:12.243Z,6524.00
2018-10-11T10:23:12.229Z,6428.00
2018-10-11T10:24:12.220Z,6708.00
2018-10-11T10:25:12.208Z,6812.00
2018-10-11T10:26:12.199Z,6924.00
2018-10-11T10:27:12.326Z,7456.00
2018-10-11T10:28:12.177Z,7636.00
2018-10-11T10:29:12.166Z,7636.00
2018-10-11T10:30:12.155Z,7040.00
2018-10-11T10:31:12.144Z,7196.00
2018-10-11T10:32:12.136Z,7352.00
2018-10-11T10:33:12.128Z,7660.00
2018-10-11T10:34:12.114Z,7624.00
2018-10-11T10:35:12.105Z,7208.00
2018-10-11T10:36:12.091Z,6556.00
2018-10-11T10:37:12.080Z,6628.00
2018-10-11T10:38:12.070Z,5788.00
2018-10-11T10:39:12.059Z,6340.00
2018-10-11T10:40:12.049Z,5952.00
2018-10-11T10:41:12.038Z,6364.00
2018-10-11T10:42:12.035Z,6256.00
2018-10-11T10:43:12.017Z,5436.00
2018-10-11T10:44:12.005Z,6488.00
2018-10-11T10:45:12.000Z,7020.00
2018-10-11T10:46:11.984Z,7244.00
2018-10-11T10:47:11.976Z,7296.00
2018-10-11T10:48:11.964Z,7524.00
2018-10-11T10:49:11.952Z,7644.00
2018-10-11T10:50:11.941Z,7612.00
2018-10-11T10:51:11.931Z,6440.00
2018-10-11T10:52:11.920Z,6176.00
2018-10-11T10:53:11.911Z,7124.00
2018-10-11T10:54:11.942Z,7268.00
2018-10-11T10:55:11.890Z,6472.00
2018-10-11T10:56:11.878Z,6156.00
2018-10-11T10:57:11.865Z,7124.00
2018-10-11T10:58:11.855Z,7380.00
2018-10-11T10:59:11.845Z,7100.00
2018-10-11T11:00:11.838Z,6732.00
2018-10-11T11:01:11.825Z,6444.00
2018-10-11T11:02:11.811Z,6704.00
2018-10-11T11:03:11.803Z,6960.00
2018-10-11T11:04:11.790Z,7144.00
2018-10-11T11:05:11.786Z,7764.00
2018-10-11T11:06:11.777Z,7792.00
2018-10-11T11:07:11.766Z,6808.00
2018-10-11T11:08:11.748Z,7656.00
2018-10-11T11:09:11.743Z,7356.00
2018-10-11T11:10:11.732Z,7524.00
2018-10-11T11:11:11.719Z,7352.00
2018-10-11T11:12:11.706Z,7020.00
2018-10-11T11:13:11.806Z,6440.00
2018-10-11T11:14:11.683Z,6572.00
2018-10-11T11:15:11.673Z,6572.00
2018-10-11T11:16:11.664Z,5972.00
2018-10-11T11:17:11.652Z,6656.00
2018-10-11T11:18:11.642Z,6396.00
2018-10-11T11:19:11.630Z,6680.00
2018-10-11T11:20:11.622Z,7588.00
2018-10-11T11:21:11.611Z,7844.00
2018-10-11T11:22:11.599Z,7608.00
2018-10-11T11:23:11.588Z,5924.00
2018-10-11T11:24:11.598Z,5856.00
2018-10-11T11:25:11.602Z,6656.00
2018-10-11T11:26:11.557Z,6812.00
2018-10-11T11:27:11.557Z,6848.00
2018-10-11T11:28:11.533Z,5652.00
2018-10-11T11:29:11.524Z,5892.00
2018-10-11T11:30:11.513Z,7336.00
2018-10-11T11:31:11.594Z,7764.00
2018-10-11T11:32:11.492Z,7884.00
2018-10-11T11:33:11.481Z,6496.00
2018-10-11T11:34:11.471Z,5420.00
2018-10-11T11:35:11.459Z,5332.00
2018-10-11T11:36:11.446Z,5908.00
2018-10-11T11:37:11.437Z,6904.00
2018-10-11T11:38:11.429Z,7308.00
2018-10-11T11:39:11.419Z,7596.00
2018-10-11T11:40:11.495Z,7980.00
2018-10-11T11:41:11.394Z,8056.00
2018-10-11T11:42:11.382Z,7216.00
2018-10-11T11:43:11.377Z,7400.00
2018-10-11T11:44:11.365Z,7020.00
2018-10-11T11:45:11.364Z,6688.00
2018-10-11T11:46:11.357Z,7136.00
2018-10-11T11:47:11.329Z,8000.00
2018-10-11T11:48:11.320Z,8112.00
2018-10-11T11:49:11.330Z,8380.00
2018-10-11T11:50:11.314Z,8312.00
2018-10-11T11:51:11.311Z,8132.00
2018-10-11T11:52:11.312Z,7948.00
2018-10-11T11:53:11.293Z,6868.00
2018-10-11T11:54:11.263Z,7596.00
2018-10-11T11:55:11.246Z,8048.00
2018-10-11T11:56:11.240Z,7872.00
2018-10-11T11:57:11.221Z,7772.00
2018-10-11T11:58:11.211Z,7816.00
2018-10-11T11:59:11.227Z,7608.00
2018-10-11T12:00:11.191Z,6136.00
2018-10-11T12:01:11.179Z,7792.00
2018-10-11T12:02:11.257Z,7348.00
2018-10-11T12:03:11.156Z,6616.00
2018-10-11T12:04:11.148Z,6412.00
2018-10-11T12:05:11.286Z,6372.00
2018-10-11T12:06:11.126Z,6896.00
2018-10-11T12:07:11.115Z,6100.00
2018-10-11T12:08:11.104Z,6096.00
2018-10-11T12:09:11.094Z,6856.00
2018-10-11T12:10:11.084Z,6176.00
2018-10-11T12:11:11.072Z,6332.00
2018-10-11T12:12:11.060Z,7272.00
2018-10-11T12:13:11.053Z,6708.00
2018-10-11T12:14:11.042Z,6588.00
2018-10-11T12:15:11.028Z,6448.00
2018-10-11T12:16:11.018Z,7304.00
2018-10-11T12:17:11.008Z,7164.00
2018-10-11T12:18:10.995Z,7200.00
2018-10-11T12:19:10.985Z,7228.00
2018-10-11T12:20:10.975Z,6280.00
2018-10-11T12:21:10.983Z,6652.00
2018-10-11T12:22:11.004Z,6840.00
2018-10-11T12:23:10.942Z,6884.00
2018-10-11T12:24:10.931Z,6516.00
2018-10-11T12:25:10.920Z,6916.00
2018-10-11T12:26:10.911Z,6936.00
2018-10-11T12:27:10.897Z,5976.00
2018-10-11T12:28:10.943Z,5932.00
2018-10-11T12:29:10.888Z,6212.00
2018-10-11T12:30:10.870Z,6772.00
2018-10-11T12:31:10.855Z,6048.00
2018-10-11T12:32:10.846Z,6360.00
2018-10-11T12:33:10.878Z,7316.00
2018-10-11T12:34:10.823Z,7720.00
2018-10-11T12:35:10.817Z,8048.00
2018-10-11T12:36:10.802Z,8148.00
2018-10-11T12:37:10.793Z,7908.00
2018-10-11T12:38:10.782Z,7764.00
2018-10-11T12:39:10.769Z,7876.00
2018-10-11T12:40:10.758Z,6416.00
2018-10-11T12:41:10.748Z,7528.00
2018-10-11T12:42:10.741Z,7396.00
2018-10-11T12:43:10.724Z,7792.00
2018-10-11T12:44:10.730Z,7144.00
2018-10-11T12:45:10.753Z,6992.00